createdAt,value
2017-09-30T00:00:36.859Z,72.02
2017-09-30T00:03:08.033Z,71.91
2017-09-30T00:08:38.539Z,71.85
2017-09-30T00:11:09.720Z,71.88
2017-09-30T00:13:40.840Z,71.89
2017-09-30T00:16:12.008Z,72.06
2017-09-30T00:18:44.547Z,72.41
2017-09-30T00:21:16.670Z,72.29
2017-09-30T00:23:48.284Z,72.18
2017-09-30T00:26:19.694Z,72.48
2017-09-30T00:28:50.847Z,72.55
2017-09-30T00:31:21.948Z,72.49
2017-09-30T00:33:53.184Z,72.29
2017-09-30T00:36:24.280Z,72.10
2017-09-30T00:38:55.427Z,72.17
2017-09-30T00:41:26.504Z,72.42
2017-09-30T00:43:57.872Z,72.41
2017-09-30T00:46:28.993Z,72.55
2017-09-30T00:49:00.134Z,72.53
2017-09-30T00:51:31.225Z,72.51
2017-09-30T00:54:03.015Z,72.65
2017-09-30T00:56:34.186Z,72.80
2017-09-30T00:59:05.717Z,72.83
2017-09-30T01:01:36.808Z,72.83
2017-09-30T01:04:07.943Z,73.12
2017-09-30T01:06:39.038Z,73.15
2017-09-30T01:09:10.209Z,73.22
2017-09-30T01:11:41.329Z,73.25
2017-09-30T01:14:12.914Z,73.33
2017-09-30T01:16:45.489Z,73.37
2017-09-30T01:19:16.770Z,72.95
2017-09-30T01:21:49.012Z,72.85
2017-09-30T01:24:20.270Z,72.82
2017-09-30T01:26:51.562Z,72.93
2017-09-30T01:29:22.988Z,72.91
2017-09-30T01:31:54.080Z,72.89
2017-09-30T01:34:25.239Z,72.74
2017-09-30T01:36:56.344Z,72.89
2017-09-30T01:39:27.535Z,72.59
2017-09-30T01:41:58.632Z,72.35
2017-09-30T01:44:30.060Z,72.29
2017-09-30T01:47:01.520Z,72.74
2017-09-30T01:49:32.665Z,72.85
2017-09-30T01:52:05.593Z,72.96
2017-09-30T01:54:36.797Z,72.93
2017-09-30T01:57:07.906Z,72.83
2017-09-30T01:59:39.342Z,72.92
2017-09-30T02:02:10.717Z,72.79
2017-09-30T02:04:41.920Z,72.89
2017-09-30T02:07:13.309Z,72.72
2017-09-30T02:09:44.926Z,72.83
2017-09-30T02:12:16.058Z,72.84
2017-09-30T02:14:47.416Z,72.92
2017-09-30T02:17:18.508Z,72.99
2017-09-30T02:19:49.604Z,72.84
2017-09-30T02:22:20.823Z,72.97
2017-09-30T02:24:51.905Z,73.04
2017-09-30T02:27:23.008Z,73.23
2017-09-30T02:29:54.533Z,73.37
2017-09-30T02:32:25.655Z,73.33
2017-09-30T02:34:56.733Z,73.28
2017-09-30T02:37:27.813Z,73.54
2017-09-30T02:39:58.872Z,73.62
2017-09-30T02:42:29.968Z,73.62
2017-09-30T02:45:01.794Z,73.58
2017-09-30T02:47:32.912Z,73.52
2017-09-30T02:50:04.594Z,73.84
2017-09-30T02:52:35.681Z,73.96
2017-09-30T02:55:06.752Z,74.19
2017-09-30T02:57:37.864Z,74.23
2017-09-30T03:00:09.227Z,74.37
2017-09-30T03:02:40.329Z,74.50
2017-09-30T03:05:11.514Z,74.59
2017-09-30T03:07:42.981Z,74.66
2017-09-30T03:10:14.165Z,74.61
2017-09-30T03:12:46.495Z,74.59
2017-09-30T03:15:17.873Z,74.58
2017-09-30T03:17:49.182Z,74.73
2017-09-30T03:20:20.287Z,75.08
2017-09-30T03:22:51.677Z,75.09
2017-09-30T03:25:22.757Z,75.35
2017-09-30T03:27:53.815Z,75.70
2017-09-30T03:30:25.168Z,75.69
2017-09-30T03:32:56.588Z,75.75
2017-09-30T03:35:27.691Z,75.89
2017-09-30T03:37:58.761Z,75.92
2017-09-30T03:40:29.864Z,76.04
2017-09-30T03:43:00.941Z,76.22
2017-09-30T03:45:32.484Z,76.33
2017-09-30T03:48:05.076Z,76.50
2017-09-30T03:50:36.186Z,76.56
2017-09-30T03:53:07.277Z,76.60
2017-09-30T03:55:38.385Z,76.58
2017-09-30T03:58:09.584Z,76.75
2017-09-30T04:00:40.947Z,76.89
2017-09-30T04:03:12.161Z,76.78
2017-09-30T04:05:43.326Z,76.60
2017-09-30T04:08:14.797Z,76.46
2017-09-30T04:10:46.865Z,76.42
2017-09-30T04:13:17.925Z,76.34
2017-09-30T04:15:49.721Z,76.31
2017-09-30T04:18:20.868Z,76.43
2017-09-30T04:20:51.939Z,76.49
2017-09-30T04:23:23.041Z,76.40
2017-09-30T04:25:54.097Z,76.27
2017-09-30T04:28:25.224Z,76.23
2017-09-30T04:30:56.588Z,76.30
2017-09-30T04:33:27.658Z,76.40
2017-09-30T04:35:58.733Z,76.46
2017-09-30T04:38:29.780Z,76.33
2017-09-30T04:41:01.095Z,76.40
2017-09-30T04:43:32.130Z,76.57
2017-09-30T04:46:04.471Z,76.67
2017-09-30T04:48:35.513Z,76.62
2017-09-30T04:51:06.610Z,76.57
2017-09-30T04:53:37.697Z,76.62
2017-09-30T04:56:08.964Z,76.64
2017-09-30T04:58:40.433Z,76.75
2017-09-30T05:01:12.214Z,76.91
2017-09-30T05:03:43.597Z,77.32
2017-09-30T05:06:14.896Z,77.35
2017-09-30T05:08:47.359Z,77.43
2017-09-30T05:11:18.435Z,77.71
2017-09-30T05:13:50.051Z,78.15
2017-09-30T05:16:21.401Z,78.44
2017-09-30T05:18:52.586Z,78.66
2017-09-30T05:21:23.630Z,78.72
2017-09-30T05:23:54.771Z,78.58
2017-09-30T05:26:25.867Z,78.49
2017-09-30T05:28:57.069Z,78.26
2017-09-30T05:31:29.530Z,78.33
2017-09-30T05:34:00.749Z,78.03
2017-09-30T05:36:31.922Z,77.92
2017-09-30T05:39:03.708Z,77.62
2017-09-30T05:41:34.744Z,78.49
2017-09-30T05:44:06.262Z,78.43
2017-09-30T05:46:37.736Z,76.90
2017-09-30T05:49:09.058Z,76.31
2017-09-30T05:51:40.371Z,76.16
2017-09-30T05:54:11.491Z,75.77
2017-09-30T05:56:42.712Z,75.49
2017-09-30T05:59:13.831Z,75.29
2017-09-30T06:01:45.841Z,74.95
2017-09-30T06:04:16.996Z,75.03
2017-09-30T06:06:48.888Z,74.77
2017-09-30T06:09:19.961Z,74.52
2017-09-30T06:11:51.192Z,74.41
2017-09-30T06:14:22.306Z,74.15
2017-09-30T06:16:53.653Z,74.10
2017-09-30T06:19:24.671Z,74.27
2017-09-30T06:21:55.728Z,74.18
2017-09-30T06:24:27.062Z,74.04
2017-09-30T06:26:58.117Z,73.66
2017-09-30T06:29:29.180Z,73.21
2017-09-30T06:32:00.561Z,72.86
2017-09-30T06:34:31.636Z,72.91
2017-09-30T06:37:03.027Z,73.04
2017-09-30T06:39:34.083Z,73.22
2017-09-30T06:42:06.155Z,73.07
2017-09-30T06:44:37.257Z,73.02
2017-09-30T06:47:08.640Z,72.70
2017-09-30T06:49:39.762Z,72.51
2017-09-30T06:52:10.851Z,72.53
2017-09-30T06:54:42.162Z,72.41
2017-09-30T06:57:13.447Z,72.11
2017-09-30T06:59:45.624Z,72.26
2017-09-30T07:02:17.556Z,71.53
2017-09-30T07:04:49.688Z,71.00
2017-09-30T07:07:20.826Z,71.23
2017-09-30T07:09:51.934Z,71.28
2017-09-30T07:12:23.193Z,71.04
2017-09-30T07:14:54.294Z,70.87
2017-09-30T07:17:25.667Z,70.60
2017-09-30T07:19:56.712Z,70.58
2017-09-30T07:22:27.761Z,70.27
2017-09-30T07:24:58.800Z,70.19
2017-09-30T07:27:30.133Z,69.97
2017-09-30T07:30:01.339Z,69.50
2017-09-30T07:32:32.752Z,68.92
2017-09-30T07:35:04.140Z,68.60
2017-09-30T07:37:35.384Z,68.26
2017-09-30T07:40:07.280Z,68.11
2017-09-30T07:42:39.622Z,67.81
2017-09-30T07:45:10.709Z,67.08
2017-09-30T07:47:42.476Z,66.86
2017-09-30T07:50:13.701Z,66.57
2017-09-30T07:52:45.064Z,66.32
2017-09-30T07:55:16.484Z,66.49
2017-09-30T07:57:49.135Z,65.52
2017-09-30T08:00:20.294Z,65.21
2017-09-30T08:02:52.072Z,64.44
2017-09-30T08:05:23.656Z,63.72
2017-09-30T08:07:54.776Z,63.39
2017-09-30T08:10:25.835Z,62.28
2017-09-30T08:12:56.948Z,60.34
2017-09-30T08:15:28.085Z,58.92
2017-09-30T08:17:59.222Z,56.37
2017-09-30T08:20:30.306Z,54.51
2017-09-30T08:23:01.851Z,53.85
2017-09-30T08:25:33.003Z,52.60
2017-09-30T08:28:05.826Z,52.84
2017-09-30T08:30:37.500Z,52.27
2017-09-30T08:33:08.567Z,51.96
2017-09-30T08:35:39.659Z,51.70
2017-09-30T08:38:10.862Z,52.06
2017-09-30T08:40:42.009Z,52.47
2017-09-30T08:43:13.278Z,52.25
2017-09-30T08:45:45.056Z,51.16
2017-09-30T08:48:16.616Z,50.63
2017-09-30T08:50:48.738Z,50.61
2017-09-30T08:53:19.896Z,51.87
2017-09-30T08:55:51.740Z,51.65
2017-09-30T08:58:22.816Z,52.08
2017-09-30T09:00:53.884Z,51.82
2017-09-30T09:03:25.278Z,50.60
2017-09-30T09:05:56.448Z,49.21
2017-09-30T09:08:27.565Z,49.73
2017-09-30T09:10:58.654Z,50.84
2017-09-30T09:13:29.774Z,50.30
2017-09-30T09:16:01.627Z,49.99
2017-09-30T09:18:33.237Z,49.45
2017-09-30T09:21:04.466Z,48.05
2017-09-30T09:23:35.603Z,46.98
2017-09-30T09:26:07.283Z,46.89
2017-09-30T09:28:38.362Z,47.69
2017-09-30T09:31:09.481Z,48.41
2017-09-30T09:33:40.580Z,47.67
2017-09-30T09:36:12.483Z,46.17
2017-09-30T09:38:43.611Z,45.29
2017-09-30T09:41:14.720Z,44.15
2017-09-30T09:43:46.001Z,45.13
2017-09-30T09:46:17.090Z,44.38
2017-09-30T09:48:49.251Z,43.69
2017-09-30T09:51:20.374Z,40.29
2017-09-30T09:53:52.165Z,37.00
2017-09-30T09:56:24.269Z,35.10
2017-09-30T09:58:55.388Z,32.35
2017-09-30T10:01:26.502Z,29.82
2017-09-30T10:03:58.205Z,26.19
2017-09-30T10:06:29.257Z,24.04
2017-09-30T10:09:00.338Z,24.60
2017-09-30T10:11:31.752Z,28.06
2017-09-30T10:14:03.267Z,29.79
2017-09-30T10:16:40.794Z,31.32
2017-09-30T10:19:11.852Z,32.79
2017-09-30T10:21:42.918Z,29.81
2017-09-30T10:24:14.183Z,24.05
2017-09-30T10:26:45.610Z,21.56
2017-09-30T10:29:16.723Z,19.87
2017-09-30T10:34:50.130Z,17.92
2017-09-30T10:37:25.960Z,18.11
2017-09-30T10:39:57.467Z,17.02
2017-09-30T10:42:30.277Z,15.93
2017-09-30T10:45:02.120Z,17.82
2017-09-30T10:47:36.486Z,19.85
2017-09-30T10:50:14.328Z,23.03
2017-09-30T10:52:50.094Z,24.71
2017-09-30T10:55:22.417Z,26.79
2017-09-30T10:57:56.752Z,30.42
2017-09-30T11:00:34.465Z,34.04
2017-09-30T11:03:13.843Z,34.25
2017-09-30T11:05:49.416Z,35.83
2017-09-30T11:08:24.155Z,34.80
2017-09-30T11:14:05.954Z,32.11
2017-09-30T11:16:38.303Z,27.40
2017-09-30T11:19:11.924Z,22.99
2017-09-30T11:21:43.384Z,23.00
2017-09-30T11:24:17.090Z,25.78
2017-09-30T11:26:52.940Z,27.06
2017-09-30T11:29:28.832Z,27.57
2017-09-30T11:32:03.433Z,27.51
2017-09-30T11:34:34.602Z,30.63
2017-09-30T11:37:06.069Z,32.93
2017-09-30T11:39:38.458Z,32.52
2017-09-30T11:42:10.373Z,29.51
2017-09-30T11:44:41.604Z,28.75
2017-09-30T11:47:15.072Z,30.96
2017-09-30T11:49:47.323Z,33.32
2017-09-30T11:52:19.035Z,33.64
2017-09-30T11:54:50.637Z,31.38
2017-09-30T11:57:21.950Z,28.07
2017-09-30T11:59:53.094Z,27.08
2017-09-30T12:02:25.400Z,25.50
2017-09-30T12:04:56.572Z,27.77
2017-09-30T12:07:27.984Z,29.76
2017-09-30T12:09:59.451Z,24.66
2017-09-30T12:12:32.208Z,23.30
2017-09-30T12:15:07.327Z,23.89
2017-09-30T12:17:38.940Z,25.18
2017-09-30T12:20:10.166Z,29.05
2017-09-30T12:22:44.001Z,31.44
2017-09-30T12:25:15.139Z,34.71
2017-09-30T12:27:47.517Z,36.62
2017-09-30T12:30:20.067Z,37.70
2017-09-30T12:32:51.802Z,39.30
2017-09-30T12:35:23.051Z,42.35
2017-09-30T12:37:54.530Z,42.73
2017-09-30T12:40:26.147Z,44.47
2017-09-30T12:42:57.336Z,44.51
2017-09-30T12:45:31.995Z,44.38
2017-09-30T12:48:04.612Z,46.07
2017-09-30T12:50:35.879Z,46.40
2017-09-30T12:53:09.061Z,47.91
2017-09-30T12:55:40.521Z,49.19
2017-09-30T12:58:12.784Z,49.02
2017-09-30T13:00:52.424Z,49.22
2017-09-30T13:03:32.689Z,49.71
2017-09-30T13:09:45.180Z,50.12
2017-09-30T13:12:35.391Z,50.49
2017-09-30T13:15:38.914Z,50.57
2017-09-30T13:27:35.170Z,54.18
2017-09-30T13:36:40.168Z,54.50
2017-09-30T13:39:42.200Z,54.28
2017-09-30T13:45:06.654Z,55.01
2017-09-30T13:47:43.754Z,55.20
2017-09-30T13:50:32.990Z,56.17
2017-09-30T13:53:05.819Z,56.48
2017-09-30T13:55:52.672Z,56.44
2017-09-30T13:58:35.445Z,56.26
2017-09-30T14:01:33.793Z,56.62
2017-09-30T14:04:10.369Z,56.73
2017-09-30T14:06:44.157Z,56.60
2017-09-30T14:09:17.739Z,57.26
2017-09-30T14:11:53.705Z,57.49
2017-09-30T14:14:30.753Z,55.55
2017-09-30T14:17:17.816Z,55.39
2017-09-30T14:19:55.314Z,52.64
2017-09-30T14:22:32.073Z,52.61
2017-09-30T14:25:05.006Z,53.95
2017-09-30T14:27:41.921Z,52.89
2017-09-30T14:30:15.293Z,53.11
2017-09-30T14:32:50.751Z,54.43
2017-09-30T14:35:24.651Z,55.93
2017-09-30T14:38:01.784Z,55.90
2017-09-30T14:40:33.701Z,55.80
2017-09-30T14:43:05.685Z,56.44
2017-09-30T14:45:38.996Z,57.88
2017-09-30T14:48:13.789Z,59.26
2017-09-30T14:50:47.287Z,59.65
2017-09-30T14:53:19.684Z,60.35
2017-09-30T14:55:54.279Z,60.21
2017-09-30T14:58:29.659Z,59.34
2017-09-30T15:01:03.397Z,59.69
2017-09-30T15:03:35.387Z,60.23
2017-09-30T15:06:08.504Z,60.90
2017-09-30T15:08:40.154Z,60.32
2017-09-30T15:11:13.563Z,60.98
2017-09-30T15:13:47.160Z,61.17
2017-09-30T15:16:19.821Z,60.81
2017-09-30T15:18:51.482Z,61.41
2017-09-30T15:21:40.022Z,61.50
2017-09-30T15:24:15.216Z,62.58
2017-09-30T15:27:00.536Z,61.82
2017-09-30T15:29:34.314Z,62.44
2017-09-30T15:32:09.548Z,62.88
2017-09-30T15:34:43.844Z,64.07
2017-09-30T15:37:21.329Z,64.16
2017-09-30T15:39:54.807Z,65.29
2017-09-30T15:42:29.752Z,65.42
2017-09-30T16:25:08.852Z,68.19
2017-09-30T16:27:42.485Z,67.91
2017-09-30T16:30:13.851Z,67.74
2017-09-30T16:32:46.215Z,67.66
2017-09-30T16:35:17.252Z,67.23
2017-09-30T16:37:48.384Z,67.50
2017-09-30T16:40:19.878Z,66.92
2017-09-30T16:42:51.104Z,66.82
2017-09-30T16:45:22.194Z,67.25
2017-09-30T16:47:53.247Z,67.16
2017-09-30T16:50:24.494Z,67.09
2017-09-30T16:53:58.111Z,67.90
2017-09-30T16:56:29.347Z,68.38
2017-09-30T16:59:00.490Z,68.64
2017-09-30T17:01:31.679Z,69.19
2017-09-30T17:04:04.144Z,69.97
2017-09-30T17:06:35.558Z,70.18
2017-09-30T17:09:08.129Z,70.50
2017-09-30T17:11:44.273Z,70.51
2017-09-30T17:14:15.517Z,71.51
2017-09-30T17:16:48.712Z,71.59
2017-09-30T17:19:19.907Z,71.92
2017-09-30T17:21:51.261Z,71.74
2017-09-30T17:24:22.725Z,71.28
2017-09-30T17:26:53.808Z,71.61
2017-09-30T17:29:25.189Z,71.73
2017-09-30T17:31:56.294Z,71.75
2017-09-30T17:34:27.374Z,72.22
2017-09-30T17:36:58.615Z,73.24
2017-09-30T17:39:29.752Z,73.89
2017-09-30T17:42:01.067Z,73.97
2017-09-30T17:44:32.183Z,74.02
2017-09-30T17:47:04.472Z,73.89
2017-09-30T17:49:35.543Z,74.20
2017-09-30T17:52:07.267Z,74.59
2017-09-30T17:54:38.313Z,74.78
2017-09-30T17:57:10.034Z,75.08
2017-09-30T17:59:43.473Z,75.82
2017-09-30T18:02:15.167Z,76.27
2017-09-30T18:04:46.573Z,76.30
2017-09-30T18:07:17.989Z,76.69
2017-09-30T18:09:49.656Z,76.89
2017-09-30T18:12:20.931Z,76.85
2017-09-30T18:14:52.290Z,77.21
2017-09-30T18:17:23.703Z,77.29
2017-09-30T18:19:54.817Z,77.21
2017-09-30T18:22:26.473Z,77.10
2017-09-30T18:24:57.589Z,77.18
2017-09-30T18:27:29.060Z,77.23
2017-09-30T18:30:00.196Z,77.53
2017-09-30T18:32:31.316Z,77.60
2017-09-30T18:35:04.659Z,77.74
2017-09-30T18:37:36.050Z,78.02
2017-09-30T18:40:10.274Z,78.31
2017-09-30T18:42:44.109Z,78.53
2017-09-30T18:51:11.461Z,77.70
2017-09-30T18:54:00.166Z,77.61
2017-09-30T18:56:44.367Z,78.26
2017-09-30T18:59:34.684Z,78.22
2017-09-30T19:10:55.129Z,77.86
2017-09-30T19:13:46.415Z,77.51
2017-09-30T19:16:30.929Z,77.50
2017-09-30T19:19:21.288Z,77.49
2017-09-30T19:22:06.347Z,77.69
2017-09-30T19:24:57.441Z,77.76
2017-09-30T19:30:13.890Z,77.68
2017-09-30T19:32:45.037Z,77.78
2017-09-30T19:35:17.064Z,77.83
2017-09-30T19:37:48.824Z,77.83
2017-09-30T19:40:20.867Z,77.67
2017-09-30T19:42:52.506Z,77.80
2017-09-30T19:45:24.016Z,77.77
2017-09-30T19:47:55.326Z,77.25
2017-09-30T19:50:26.779Z,77.08
2017-09-30T19:52:59.306Z,77.29
2017-09-30T19:55:30.496Z,77.63
2017-09-30T19:58:03.533Z,77.75
2017-09-30T20:03:15.242Z,77.14
2017-09-30T20:05:46.445Z,76.91
2017-09-30T20:08:17.909Z,75.93
2017-09-30T20:10:49.431Z,75.18
2017-09-30T20:13:20.617Z,75.12
2017-09-30T20:15:51.694Z,74.58
2017-09-30T20:18:22.773Z,74.62
2017-09-30T20:20:54.160Z,74.59
2017-09-30T20:23:25.248Z,74.08
2017-09-30T20:25:56.526Z,74.09
2017-09-30T20:28:27.733Z,73.89
2017-09-30T20:31:00.169Z,73.40
2017-09-30T20:33:31.916Z,72.82
2017-09-30T20:36:04.257Z,73.27
2017-09-30T20:38:35.762Z,73.14
2017-09-30T20:41:06.883Z,73.48
2017-09-30T20:43:37.955Z,73.80
2017-09-30T20:46:09.023Z,74.33
2017-09-30T20:48:40.420Z,74.03
2017-09-30T20:51:11.508Z,73.75
2017-09-30T20:53:43.137Z,73.64
2017-09-30T20:56:14.233Z,73.57
2017-09-30T20:58:45.387Z,73.76
2017-09-30T21:01:16.435Z,74.02
2017-09-30T21:03:47.739Z,73.86
2017-09-30T21:06:20.128Z,73.49
2017-09-30T21:08:51.217Z,73.36
2017-09-30T21:11:22.354Z,73.14
2017-09-30T21:13:53.721Z,72.98
2017-09-30T21:16:24.785Z,72.94
2017-09-30T21:18:56.218Z,72.74
2017-09-30T21:21:27.339Z,72.94
2017-09-30T21:23:58.713Z,72.78
2017-09-30T21:26:29.935Z,72.65
2017-09-30T21:29:03.792Z,73.20
2017-09-30T21:31:34.899Z,73.63
2017-09-30T21:34:06.587Z,73.81
2017-09-30T21:36:38.081Z,73.91
2017-09-30T21:39:09.393Z,74.03
2017-09-30T21:41:40.511Z,74.15
2017-09-30T21:44:11.607Z,74.13
2017-09-30T21:46:42.707Z,74.33
2017-09-30T21:49:13.790Z,74.86
2017-09-30T21:51:45.171Z,74.88
2017-09-30T21:54:16.334Z,74.90
2017-09-30T21:56:47.548Z,74.74
2017-09-30T21:59:18.980Z,74.60
2017-09-30T22:01:50.037Z,74.80
2017-09-30T22:04:21.564Z,74.79
2017-09-30T22:06:53.091Z,74.87
2017-09-30T22:09:24.274Z,74.73
2017-09-30T22:11:55.681Z,74.65
2017-09-30T22:14:26.999Z,74.28
2017-09-30T22:16:58.539Z,74.37
2017-09-30T22:19:30.041Z,74.65
2017-09-30T22:22:03.067Z,73.60
2017-09-30T22:24:34.540Z,72.21
2017-09-30T22:27:05.604Z,70.64
2017-09-30T22:29:36.706Z,70.41
2017-09-30T22:32:07.752Z,70.23
2017-09-30T22:34:39.119Z,69.85
2017-09-30T22:37:10.452Z,69.92
2017-09-30T22:39:41.559Z,69.85
2017-09-30T22:42:12.685Z,69.89
2017-09-30T22:44:43.789Z,70.38
2017-09-30T22:47:14.845Z,70.68
2017-09-30T22:49:46.205Z,70.90
2017-09-30T22:52:17.565Z,70.94
2017-09-30T22:54:48.726Z,71.26
2017-09-30T22:57:20.322Z,71.29
2017-09-30T22:59:51.497Z,71.37
2017-09-30T23:02:22.590Z,71.38
2017-09-30T23:04:53.810Z,71.68
2017-09-30T23:07:24.858Z,72.00
2017-09-30T23:09:56.435Z,72.64
2017-09-30T23:12:27.552Z,72.71
2017-09-30T23:14:59.630Z,72.87
2017-09-30T23:17:30.858Z,73.09
2017-09-30T23:20:04.659Z,73.30
2017-09-30T23:22:35.727Z,73.64
2017-09-30T23:25:07.988Z,74.02
2017-09-30T23:27:39.053Z,74.50
2017-09-30T23:30:10.143Z,74.71
2017-09-30T23:32:41.216Z,75.35
2017-09-30T23:35:12.246Z,75.44
2017-09-30T23:37:43.590Z,75.66
2017-09-30T23:40:14.842Z,75.75
2017-09-30T23:42:46.396Z,76.15
2017-09-30T23:45:17.485Z,76.39
2017-09-30T23:47:48.644Z,76.79
2017-09-30T23:50:19.704Z,77.43
2017-09-30T23:52:51.039Z,77.81
2017-09-30T23:55:22.369Z,77.54
2017-09-30T23:57:53.484Z,77.66
